sensor_id;sensor_type;location;lat;lon;timestamp;pressure;altitude;pressure_sealevel;temperature;humidity
62354;BME280;48391;49.184;2.418;2023-07-08T04:48:20;100963.16;;;18.44;100.00
62354;BME280;48391;49.184;2.418;2023-07-08T04:50:51;100956.06;;;18.72;100.00
62354;BME280;48391;49.184;2.418;2023-07-08T04:53:18;100942.00;;;18.77;100.00
62354;BME280;48391;49.184;2.418;2023-07-08T04:55:50;100944.03;;;18.90;100.00
62354;BME280;48391;49.184;2.418;2023-07-08T04:58:17;100948.72;;;19.17;100.00
62354;BME280;48391;49.184;2.418;2023-07-08T05:00:44;100946.72;;;19.40;100.00
62354;BME280;48391;49.184;2.418;2023-07-08T05:03:13;100940.84;;;19.57;100.00
62354;BME280;48391;49.184;2.418;2023-07-08T05:05:39;100932.53;;;19.80;100.00
62354;BME280;48391;49.184;2.418;2023-07-08T05:08:07;100935.34;;;19.93;100.00
62354;BME280;48391;49.184;2.418;2023-07-08T05:10:33;100927.06;;;20.01;100.00
62354;BME280;48391;49.184;2.418;2023-07-08T05:13:00;100923.81;;;20.12;100.00
62354;BME280;48391;49.184;2.418;2023-07-08T05:15:27;100919.69;;;20.16;100.00
62354;BME280;48391;49.184;2.418;2023-07-08T05:17:53;100925.50;;;20.13;100.00
62354;BME280;48391;49.184;2.418;2023-07-08T05:20:19;100937.75;;;20.37;100.00
62354;BME280;48391;49.184;2.418;2023-07-08T05:22:47;100946.13;;;20.48;100.00
62354;BME280;48391;49.184;2.418;2023-07-08T05:25:14;100947.09;;;20.69;100.00
62354;BME280;48391;49.184;2.418;2023-07-08T05:27:43;100959.34;;;20.65;100.00
62354;BME280;48391;49.184;2.418;2023-07-08T05:30:14;100972.22;;;20.97;100.00
62354;BME280;48391;49.184;2.418;2023-07-08T05:32:41;100973.56;;;21.14;100.00
62354;BME280;48391;49.184;2.418;2023-07-08T05:35:07;100977.22;;;21.54;100.00
62354;BME280;48391;49.184;2.418;2023-07-08T05:37:33;100984.16;;;21.89;100.00
62354;BME280;48391;49.184;2.418;2023-07-08T05:40:00;100988.34;;;21.91;100.00
62354;BME280;48391;49.184;2.418;2023-07-08T05:42:28;100990.84;;;21.86;100.00
62354;BME280;48391;49.184;2.418;2023-07-08T05:44:54;101007.09;;;21.80;100.00
62354;BME280;48391;49.184;2.418;2023-07-08T05:47:21;101019.16;;;21.71;100.00
62354;BME280;48391;49.184;2.418;2023-07-08T05:49:48;101008.56;;;21.82;100.00
62354;BME280;48391;49.184;2.418;2023-07-08T05:52:14;100992.09;;;22.23;100.00
62354;BME280;48391;49.184;2.418;2023-07-08T05:54:41;101010.66;;;22.26;100.00
62354;BME280;48391;49.184;2.418;2023-07-08T05:57:09;101019.03;;;21.98;100.00
62354;BME280;48391;49.184;2.418;2023-07-08T05:59:36;101037.75;;;21.80;100.00
62354;BME280;48391;49.184;2.418;2023-07-08T06:02:08;101044.59;;;21.57;100.00
62354;BME280;48391;49.184;2.418;2023-07-08T06:04:35;101055.66;;;21.68;100.00
62354;BME280;48391;49.184;2.418;2023-07-08T06:07:01;101053.75;;;21.49;100.00
62354;BME280;48391;49.184;2.418;2023-07-08T06:09:28;101070.69;;;21.71;100.00
62354;BME280;48391;49.184;2.418;2023-07-08T06:11:54;101077.91;;;21.44;100.00
62354;BME280;48391;49.184;2.418;2023-07-08T06:14:20;101078.78;;;21.51;100.00
62354;BME280;48391;49.184;2.418;2023-07-08T06:16:46;101085.22;;;21.50;100.00
62354;BME280;48391;49.184;2.418;2023-07-08T06:19:13;101079.66;;;21.65;100.00
62354;BME280;48391;49.184;2.418;2023-07-08T06:21:41;101079.31;;;21.81;100.00
62354;BME280;48391;49.184;2.418;2023-07-08T06:24:07;101086.44;;;21.95;100.00
62354;BME280;48391;49.184;2.418;2023-07-08T06:26:33;101105.84;;;21.85;100.00
62354;BME280;48391;49.184;2.418;2023-07-08T06:29:00;101112.09;;;21.92;100.00
62354;BME280;48391;49.184;2.418;2023-07-08T06:31:26;101101.44;;;21.84;100.00
62354;BME280;48391;49.184;2.418;2023-07-08T06:33:52;101097.22;;;21.75;100.00
62354;BME280;48391;49.184;2.418;2023-07-08T06:36:18;101108.03;;;21.69;100.00
62354;BME280;48391;49.184;2.418;2023-07-08T06:38:46;101115.53;;;21.67;100.00
62354;BME280;48391;49.184;2.418;2023-07-08T06:41:13;101130.34;;;21.64;100.00
62354;BME280;48391;49.184;2.418;2023-07-08T06:43:39;101124.81;;;21.85;100.00
62354;BME280;48391;49.184;2.418;2023-07-08T06:46:05;101129.47;;;22.04;100.00
62354;BME280;48391;49.184;2.418;2023-07-08T06:48:32;101135.09;;;22.03;100.00
62354;BME280;48391;49.184;2.418;2023-07-08T06:50:59;101137.63;;;22.11;100.00
62354;BME280;48391;49.184;2.418;2023-07-08T06:53:25;101142.00;;;22.12;100.00
62354;BME280;48391;49.184;2.418;2023-07-08T06:55:51;101152.47;;;22.22;100.00
62354;BME280;48391;49.184;2.418;2023-07-08T06:58:17;101157.47;;;22.25;100.00
62354;BME280;48391;49.184;2.418;2023-07-08T07:00:47;101156.63;;;22.24;100.00
62354;BME280;48391;49.184;2.418;2023-07-08T07:03:13;101164.38;;;22.27;100.00
62354;BME280;48391;49.184;2.418;2023-07-08T07:05:40;101162.75;;;22.46;100.00
62354;BME280;48391;49.184;2.418;2023-07-08T07:08:06;101160.03;;;22.46;100.00
62354;BME280;48391;49.184;2.418;2023-07-08T07:10:34;101168.84;;;22.87;100.00
62354;BME280;48391;49.184;2.418;2023-07-08T07:13:00;101164.41;;;23.19;100.00
62354;BME280;48391;49.184;2.418;2023-07-08T07:15:26;101161.09;;;23.74;nan
62354;BME280;48391;49.184;2.418;2023-07-08T07:17:53;101154.00;;;24.17;nan
62354;BME280;48391;49.184;2.418;2023-07-08T07:20:37;101162.31;;;24.29;100.00
62354;BME280;48391;49.184;2.418;2023-07-08T07:23:04;101174.13;;;24.72;100.00
62354;BME280;48391;49.184;2.418;2023-07-08T07:25:30;101167.44;;;25.17;nan
62354;BME280;48391;49.184;2.418;2023-07-08T07:29:47;101154.78;;;25.95;100.00
62354;BME280;48391;49.184;2.418;2023-07-08T07:32:14;101164.91;;;26.24;nan
62354;BME280;48391;49.184;2.418;2023-07-08T07:35:35;101167.81;;;26.94;100.00
62354;BME280;48391;49.184;2.418;2023-07-08T07:38:02;101164.47;;;27.03;100.00
62354;BME280;48391;49.184;2.418;2023-07-08T07:40:31;101161.38;;;27.00;100.00
62354;BME280;48391;49.184;2.418;2023-07-08T07:42:57;101158.88;;;27.22;100.00
62354;BME280;48391;49.184;2.418;2023-07-08T07:45:23;101162.69;;;27.44;100.00
62354;BME280;48391;49.184;2.418;2023-07-08T07:47:50;101163.13;;;27.64;100.00
62354;BME280;48391;49.184;2.418;2023-07-08T07:50:16;61489.81;;;-142.61;100.00
62354;BME280;48391;49.184;2.418;2023-07-08T07:52:42;61489.81;;;-142.61;100.00
62354;BME280;48391;49.184;2.418;2023-07-08T07:55:08;61489.81;;;-142.61;100.00
62354;BME280;48391;49.184;2.418;2023-07-08T07:57:35;61489.81;;;-142.61;100.00
62354;BME280;48391;49.184;2.418;2023-07-08T08:00:01;61489.81;;;-142.61;100.00
62354;BME280;48391;49.184;2.418;2023-07-08T08:02:27;61489.81;;;-142.61;100.00
62354;BME280;48391;49.184;2.418;2023-07-08T08:04:53;61489.81;;;-142.61;100.00
62354;BME280;48391;49.184;2.418;2023-07-08T08:07:19;61489.81;;;-142.61;100.00
62354;BME280;48391;49.184;2.418;2023-07-08T08:09:46;61489.81;;;-142.61;100.00
62354;BME280;48391;49.184;2.418;2023-07-08T08:12:12;61489.81;;;-142.61;100.00
62354;BME280;48391;49.184;2.418;2023-07-08T08:14:39;61489.81;;;-142.61;100.00
62354;BME280;48391;49.184;2.418;2023-07-08T08:19:43;61489.81;;;-142.61;100.00
62354;BME280;48391;49.184;2.418;2023-07-08T08:22:09;61489.81;;;-142.61;100.00
62354;BME280;48391;49.184;2.418;2023-07-08T08:24:36;61489.81;;;-142.61;100.00
62354;BME280;48391;49.184;2.418;2023-07-08T08:27:02;61489.81;;;-142.61;100.00
62354;BME280;48391;49.184;2.418;2023-07-08T08:29:28;61489.81;;;-142.61;100.00
62354;BME280;48391;49.184;2.418;2023-07-08T08:31:54;61489.81;;;-142.61;100.00
62354;BME280;48391;49.184;2.418;2023-07-08T08:34:21;61489.81;;;-142.61;100.00
62354;BME280;48391;49.184;2.418;2023-07-08T08:36:47;61489.81;;;-142.61;100.00
62354;BME280;48391;49.184;2.418;2023-07-08T08:39:13;61489.81;;;-142.61;100.00
62354;BME280;48391;49.184;2.418;2023-07-08T08:41:42;61489.81;;;-142.61;100.00
62354;BME280;48391;49.184;2.418;2023-07-08T08:44:14;61489.81;;;-142.61;100.00
62354;BME280;48391;49.184;2.418;2023-07-08T08:47:11;61489.81;;;-142.61;100.00
62354;BME280;48391;49.184;2.418;2023-07-08T08:49:47;61489.81;;;-142.61;100.00
62354;BME280;48391;49.184;2.418;2023-07-08T08:52:16;61489.81;;;-142.61;100.00
62354;BME280;48391;49.184;2.418;2023-07-08T08:54:43;61489.81;;;-142.61;100.00
62354;BME280;48391;49.184;2.418;2023-07-08T09:00:00;61489.81;;;-142.61;100.00
62354;BME280;48391;49.184;2.418;2023-07-08T09:02:41;61489.81;;;-142.61;100.00
62354;BME280;48391;49.184;2.418;2023-07-08T09:05:10;61489.81;;;-142.61;100.00
62354;BME280;48391;49.184;2.418;2023-07-08T09:15:40;61489.81;;;-142.61;100.00
62354;BME280;48391;49.184;2.418;2023-07-08T09:18:32;61489.81;;;-142.61;100.00
62354;BME280;48391;49.184;2.418;2023-07-08T09:21:05;61489.81;;;-142.61;100.00
62354;BME280;48391;49.184;2.418;2023-07-08T09:26:38;61489.81;;;-142.61;100.00
62354;BME280;48391;49.184;2.418;2023-07-08T09:29:09;61489.81;;;-142.61;100.00
62354;BME280;48391;49.184;2.418;2023-07-08T09:31:38;61489.81;;;-142.61;100.00
62354;BME280;48391;49.184;2.418;2023-07-08T09:34:13;61489.81;;;-142.61;100.00
62354;BME280;48391;49.184;2.418;2023-07-08T09:36:43;61489.81;;;-142.61;100.00
62354;BME280;48391;49.184;2.418;2023-07-08T09:39:20;61489.81;;;-142.61;100.00
62354;BME280;48391;49.184;2.418;2023-07-08T09:41:48;61489.81;;;-142.61;100.00
62354;BME280;48391;49.184;2.418;2023-07-08T09:44:26;61489.81;;;-142.61;100.00
62354;BME280;48391;49.184;2.418;2023-07-08T09:46:56;61489.81;;;-142.61;100.00
62354;BME280;48391;49.184;2.418;2023-07-08T09:49:34;61489.81;;;-142.61;100.00
62354;BME280;48391;49.184;2.418;2023-07-08T09:52:02;61489.81;;;-142.61;100.00
62354;BME280;48391;49.184;2.418;2023-07-08T09:54:30;61489.81;;;-142.61;100.00
62354;BME280;48391;49.184;2.418;2023-07-08T09:56:59;61489.81;;;-142.61;100.00
62354;BME280;48391;49.184;2.418;2023-07-08T09:59:41;61489.81;;;-142.61;100.00
62354;BME280;48391;49.184;2.418;2023-07-08T10:02:41;61489.81;;;-142.61;100.00
62354;BME280;48391;49.184;2.418;2023-07-08T10:05:24;61489.81;;;-142.61;100.00
62354;BME280;48391;49.184;2.418;2023-07-08T10:07:56;61489.81;;;-142.61;100.00
62354;BME280;48391;49.184;2.418;2023-07-08T10:10:35;61489.81;;;-142.61;100.00
62354;BME280;48391;49.184;2.418;2023-07-08T10:13:28;61489.81;;;-142.61;100.00
62354;BME280;48391;49.184;2.418;2023-07-08T10:16:27;61489.81;;;-142.61;100.00
62354;BME280;48391;49.184;2.418;2023-07-08T10:18:53;61489.81;;;-142.61;100.00
62354;BME280;48391;49.184;2.418;2023-07-08T10:21:26;61489.81;;;-142.61;100.00
62354;BME280;48391;49.184;2.418;2023-07-08T10:24:23;61489.81;;;-142.61;100.00
62354;BME280;48391;49.184;2.418;2023-07-08T10:35:23;61489.81;;;-142.61;100.00
62354;BME280;48391;49.184;2.418;2023-07-08T10:40:47;61489.81;;;-142.61;100.00
62354;BME280;48391;49.184;2.418;2023-07-08T10:43:33;61489.81;;;-142.61;100.00
62354;BME280;48391;49.184;2.418;2023-07-08T10:51:50;61489.81;;;-142.61;100.00
62354;BME280;48391;49.184;2.418;2023-07-08T10:54:44;61489.81;;;-142.61;100.00
62354;BME280;48391;49.184;2.418;2023-07-08T11:03:16;61489.81;;;-142.61;100.00
62354;BME280;48391;49.184;2.418;2023-07-08T11:08:31;61489.81;;;-142.61;100.00
62354;BME280;48391;49.184;2.418;2023-07-08T11:13:52;61489.81;;;-142.61;100.00
62354;BME280;48391;49.184;2.418;2023-07-08T11:16:47;61489.81;;;-142.61;100.00
62354;BME280;48391;49.184;2.418;2023-07-08T11:19:27;61489.81;;;-142.61;100.00
62354;BME280;48391;49.184;2.418;2023-07-08T11:22:00;61489.81;;;-142.61;100.00
62354;BME280;48391;49.184;2.418;2023-07-08T11:27:06;61489.81;;;-142.61;100.00
62354;BME280;48391;49.184;2.418;2023-07-08T11:32:25;61489.81;;;-142.61;100.00
62354;BME280;48391;49.184;2.418;2023-07-08T11:34:53;61489.81;;;-142.61;100.00
62354;BME280;48391;49.184;2.418;2023-07-08T11:37:22;61489.81;;;-142.61;100.00
62354;BME280;48391;49.184;2.418;2023-07-08T11:44:58;61489.81;;;-142.61;100.00
62354;BME280;48391;49.184;2.418;2023-07-08T11:47:45;61489.81;;;-142.61;100.00
62354;BME280;48391;49.184;2.418;2023-07-08T11:50:31;61489.81;;;-142.61;100.00
62354;BME280;48391;49.184;2.418;2023-07-08T11:53:01;61489.81;;;-142.61;100.00
62354;BME280;48391;49.184;2.418;2023-07-08T11:55:44;61489.81;;;-142.61;100.00
62354;BME280;48391;49.184;2.418;2023-07-08T12:03:50;61489.81;;;-142.61;100.00
62354;BME280;48391;49.184;2.418;2023-07-08T12:09:13;61489.81;;;-142.61;100.00
62354;BME280;48391;49.184;2.418;2023-07-08T12:11:47;61489.81;;;-142.61;100.00
62354;BME280;48391;49.184;2.418;2023-07-08T12:14:17;61489.81;;;-142.61;100.00
62354;BME280;48391;49.184;2.418;2023-07-08T12:16:43;61489.81;;;-142.61;100.00
62354;BME280;48391;49.184;2.418;2023-07-08T12:19:13;61489.81;;;-142.61;100.00
62354;BME280;48391;49.184;2.418;2023-07-08T12:21:42;61489.81;;;-142.61;100.00
62354;BME280;48391;49.184;2.418;2023-07-08T12:24:12;61489.81;;;-142.61;100.00
62354;BME280;48391;49.184;2.418;2023-07-08T12:26:39;61489.81;;;-142.61;100.00
62354;BME280;48391;49.184;2.418;2023-07-08T12:31:36;61489.81;;;-142.61;100.00
62354;BME280;48391;49.184;2.418;2023-07-08T12:34:03;61489.81;;;-142.61;100.00
62354;BME280;48391;49.184;2.418;2023-07-08T12:36:34;61489.81;;;-142.61;100.00
62354;BME280;48391;49.184;2.418;2023-07-08T12:39:00;61489.81;;;-142.61;100.00
62354;BME280;48391;49.184;2.418;2023-07-08T12:41:33;61489.81;;;-142.61;100.00
62354;BME280;48391;49.184;2.418;2023-07-08T12:44:01;61489.81;;;-142.61;100.00
62354;BME280;48391;49.184;2.418;2023-07-08T12:46:28;61489.81;;;-142.61;100.00
62354;BME280;48391;49.184;2.418;2023-07-08T12:48:55;61489.81;;;-142.61;100.00
62354;BME280;48391;49.184;2.418;2023-07-08T12:51:24;61489.81;;;-142.61;100.00
62354;BME280;48391;49.184;2.418;2023-07-08T12:53:52;61489.81;;;-142.61;100.00
62354;BME280;48391;49.184;2.418;2023-07-08T12:56:19;61489.81;;;-142.61;100.00
62354;BME280;48391;49.184;2.418;2023-07-08T12:58:55;61489.81;;;-142.61;100.00
62354;BME280;48391;49.184;2.418;2023-07-08T13:01:24;61489.81;;;-142.61;100.00
62354;BME280;48391;49.184;2.418;2023-07-08T13:03:54;61489.81;;;-142.61;100.00
62354;BME280;48391;49.184;2.418;2023-07-08T13:06:25;61489.81;;;-142.61;100.00
62354;BME280;48391;49.184;2.418;2023-07-08T13:08:54;61489.81;;;-142.61;100.00
62354;BME280;48391;49.184;2.418;2023-07-08T13:11:23;61489.81;;;-142.61;100.00
62354;BME280;48391;49.184;2.418;2023-07-08T13:13:56;61489.81;;;-142.61;100.00
62354;BME280;48391;49.184;2.418;2023-07-08T13:16:28;61489.81;;;-142.61;100.00
62354;BME280;48391;49.184;2.418;2023-07-08T13:18:56;61489.81;;;-142.61;100.00
62354;BME280;48391;49.184;2.418;2023-07-08T13:21:22;61489.81;;;-142.61;100.00
62354;BME280;48391;49.184;2.418;2023-07-08T13:23:50;61489.81;;;-142.61;100.00
62354;BME280;48391;49.184;2.418;2023-07-08T13:26:27;61489.81;;;-142.61;100.00
62354;BME280;48391;49.184;2.418;2023-07-08T13:29:13;61489.81;;;-142.61;100.00
62354;BME280;48391;49.184;2.418;2023-07-08T13:31:42;61489.81;;;-142.61;100.00
62354;BME280;48391;49.184;2.418;2023-07-08T13:34:15;61489.81;;;-142.61;100.00
62354;BME280;48391;49.184;2.418;2023-07-08T13:36:44;61489.81;;;-142.61;100.00
62354;BME280;48391;49.184;2.418;2023-07-08T13:39:20;61489.81;;;-142.61;100.00
62354;BME280;48391;49.184;2.418;2023-07-08T13:41:49;61489.81;;;-142.61;100.00
62354;BME280;48391;49.184;2.418;2023-07-08T13:44:15;61489.81;;;-142.61;100.00
62354;BME280;48391;49.184;2.418;2023-07-08T13:49:28;61489.81;;;-142.61;100.00
62354;BME280;48391;49.184;2.418;2023-07-08T13:52:24;61489.81;;;-142.61;100.00
62354;BME280;48391;49.184;2.418;2023-07-08T13:54:53;61489.81;;;-142.61;100.00
62354;BME280;48391;49.184;2.418;2023-07-08T13:57:30;61489.81;;;-142.61;100.00
62354;BME280;48391;49.184;2.418;2023-07-08T13:59:57;61489.81;;;-142.61;100.00
62354;BME280;48391;49.184;2.418;2023-07-08T14:02:29;61489.81;;;-142.61;100.00
62354;BME280;48391;49.184;2.418;2023-07-08T14:04:57;61489.81;;;-142.61;100.00
62354;BME280;48391;49.184;2.418;2023-07-08T14:07:27;61489.81;;;-142.61;100.00
62354;BME280;48391;49.184;2.418;2023-07-08T14:09:54;61489.81;;;-142.61;100.00
62354;BME280;48391;49.184;2.418;2023-07-08T14:12:21;61489.81;;;-142.61;100.00
62354;BME280;48391;49.184;2.418;2023-07-08T14:14:47;61489.81;;;-142.61;100.00
62354;BME280;48391;49.184;2.418;2023-07-08T14:17:23;61489.81;;;-142.61;100.00
62354;BME280;48391;49.184;2.418;2023-07-08T14:19:50;61489.81;;;-142.61;100.00
62354;BME280;48391;49.184;2.418;2023-07-08T14:22:22;61489.81;;;-142.61;100.00
62354;BME280;48391;49.184;2.418;2023-07-08T14:24:49;61489.81;;;-142.61;100.00
62354;BME280;48391;49.184;2.418;2023-07-08T14:27:15;61489.81;;;-142.61;100.00
62354;BME280;48391;49.184;2.418;2023-07-08T14:29:46;61489.81;;;-142.61;100.00
62354;BME280;48391;49.184;2.418;2023-07-08T14:32:18;61489.81;;;-142.61;100.00
62354;BME280;48391;49.184;2.418;2023-07-08T14:34:51;61489.81;;;-142.61;100.00
62354;BME280;48391;49.184;2.418;2023-07-08T14:37:19;61489.81;;;-142.61;100.00
62354;BME280;48391;49.184;2.418;2023-07-08T14:39:46;61489.81;;;-142.61;100.00
62354;BME280;48391;49.184;2.418;2023-07-08T14:42:14;61489.81;;;-142.61;100.00
62354;BME280;48391;49.184;2.418;2023-07-08T14:44:48;61489.81;;;-142.61;100.00
62354;BME280;48391;49.184;2.418;2023-07-08T14:47:17;61489.81;;;-142.61;100.00
62354;BME280;48391;49.184;2.418;2023-07-08T14:49:44;61489.81;;;-142.61;100.00
62354;BME280;48391;49.184;2.418;2023-07-08T14:52:10;61489.81;;;-142.61;100.00
62354;BME280;48391;49.184;2.418;2023-07-08T14:54:37;61489.81;;;-142.61;100.00
62354;BME280;48391;49.184;2.418;2023-07-08T14:57:04;61489.81;;;-142.61;100.00
62354;BME280;48391;49.184;2.418;2023-07-08T14:59:33;61489.81;;;-142.61;100.00
62354;BME280;48391;49.184;2.418;2023-07-08T15:02:01;61489.81;;;-142.61;100.00
62354;BME280;48391;49.184;2.418;2023-07-08T15:04:28;61489.81;;;-142.61;100.00
62354;BME280;48391;49.184;2.418;2023-07-08T15:06:56;61489.81;;;-142.61;100.00
62354;BME280;48391;49.184;2.418;2023-07-08T15:09:23;61489.81;;;-142.61;100.00
62354;BME280;48391;49.184;2.418;2023-07-08T15:11:49;61489.81;;;-142.61;100.00
62354;BME280;48391;49.184;2.418;2023-07-08T15:14:21;61489.81;;;-142.61;100.00
62354;BME280;48391;49.184;2.418;2023-07-08T15:16:49;61489.81;;;-142.61;100.00
62354;BME280;48391;49.184;2.418;2023-07-08T15:19:16;61489.81;;;-142.61;100.00
62354;BME280;48391;49.184;2.418;2023-07-08T15:21:42;61489.81;;;-142.61;100.00
62354;BME280;48391;49.184;2.418;2023-07-08T15:24:13;61489.81;;;-142.61;100.00
62354;BME280;48391;49.184;2.418;2023-07-08T15:26:45;61489.81;;;-142.61;100.00
62354;BME280;48391;49.184;2.418;2023-07-08T15:29:15;61489.81;;;-142.61;100.00
62354;BME280;48391;49.184;2.418;2023-07-08T15:31:42;61489.81;;;-142.61;100.00
62354;BME280;48391;49.184;2.418;2023-07-08T15:34:14;61489.81;;;-142.61;100.00
62354;BME280;48391;49.184;2.418;2023-07-08T15:36:41;61489.81;;;-142.61;100.00
62354;BME280;48391;49.184;2.418;2023-07-08T15:39:07;61489.81;;;-142.61;100.00
62354;BME280;48391;49.184;2.418;2023-07-08T15:41:35;61489.81;;;-142.61;100.00
62354;BME280;48391;49.184;2.418;2023-07-08T15:44:02;61489.81;;;-142.61;100.00
62354;BME280;48391;49.184;2.418;2023-07-08T15:46:34;61489.81;;;-142.61;100.00
62354;BME280;48391;49.184;2.418;2023-07-08T15:49:01;61489.81;;;-142.61;100.00
62354;BME280;48391;49.184;2.418;2023-07-08T15:51:27;61489.81;;;-142.61;100.00
62354;BME280;48391;49.184;2.418;2023-07-08T15:53:55;61489.81;;;-142.61;100.00
62354;BME280;48391;49.184;2.418;2023-07-08T15:56:21;61489.81;;;-142.61;100.00
62354;BME280;48391;49.184;2.418;2023-07-08T15:58:49;61489.81;;;-142.61;100.00
62354;BME280;48391;49.184;2.418;2023-07-08T16:01:24;61489.81;;;-142.61;100.00
62354;BME280;48391;49.184;2.418;2023-07-08T16:03:51;61489.81;;;-142.61;100.00
62354;BME280;48391;49.184;2.418;2023-07-08T16:06:18;61489.81;;;-142.61;100.00
62354;BME280;48391;49.184;2.418;2023-07-08T16:08:45;61489.81;;;-142.61;100.00
62354;BME280;48391;49.184;2.418;2023-07-08T16:11:20;61489.81;;;-142.61;100.00
62354;BME280;48391;49.184;2.418;2023-07-08T16:13:48;61489.81;;;-142.61;100.00
62354;BME280;48391;49.184;2.418;2023-07-08T16:16:15;61489.81;;;-142.61;100.00
62354;BME280;48391;49.184;2.418;2023-07-08T16:18:41;61489.81;;;-142.61;100.00
62354;BME280;48391;49.184;2.418;2023-07-08T16:21:08;61489.81;;;-142.61;100.00
62354;BME280;48391;49.184;2.418;2023-07-08T16:23:34;61489.81;;;-142.61;100.00
62354;BME280;48391;49.184;2.418;2023-07-08T16:26:01;61489.81;;;-142.61;100.00
62354;BME280;48391;49.184;2.418;2023-07-08T16:28:35;61489.81;;;-142.61;100.00
62354;BME280;48391;49.184;2.418;2023-07-08T16:31:18;61489.81;;;-142.61;100.00
62354;BME280;48391;49.184;2.418;2023-07-08T16:33:46;61489.81;;;-142.61;100.00
62354;BME280;48391;49.184;2.418;2023-07-08T16:36:18;61489.81;;;-142.61;100.00
62354;BME280;48391;49.184;2.418;2023-07-08T16:38:45;61489.81;;;-142.61;100.00
62354;BME280;48391;49.184;2.418;2023-07-08T16:41:13;61489.81;;;-142.61;100.00
62354;BME280;48391;49.184;2.418;2023-07-08T16:43:40;61489.81;;;-142.61;100.00
62354;BME280;48391;49.184;2.418;2023-07-08T16:46:08;61489.81;;;-142.61;100.00
62354;BME280;48391;49.184;2.418;2023-07-08T16:48:35;61489.81;;;-142.61;100.00
62354;BME280;48391;49.184;2.418;2023-07-08T16:51:01;61489.81;;;-142.61;100.00
62354;BME280;48391;49.184;2.418;2023-07-08T16:53:27;61489.81;;;-142.61;100.00
62354;BME280;48391;49.184;2.418;2023-07-08T16:55:53;61489.81;;;-142.61;100.00
62354;BME280;48391;49.184;2.418;2023-07-08T16:58:19;61489.81;;;-142.61;100.00
62354;BME280;48391;49.184;2.418;2023-07-08T17:00:46;61489.81;;;-142.61;100.00
62354;BME280;48391;49.184;2.418;2023-07-08T17:03:14;61489.81;;;-142.61;100.00
62354;BME280;48391;49.184;2.418;2023-07-08T17:05:42;61489.81;;;-142.61;100.00
62354;BME280;48391;49.184;2.418;2023-07-08T17:08:15;61489.81;;;-142.61;100.00
62354;BME280;48391;49.184;2.418;2023-07-08T17:10:42;61489.81;;;-142.61;100.00
62354;BME280;48391;49.184;2.418;2023-07-08T17:13:10;61489.81;;;-142.61;100.00
62354;BME280;48391;49.184;2.418;2023-07-08T17:15:37;61489.81;;;-142.61;100.00
62354;BME280;48391;49.184;2.418;2023-07-08T17:18:04;61489.81;;;-142.61;100.00
62354;BME280;48391;49.184;2.418;2023-07-08T17:20:35;61489.81;;;-142.61;100.00
62354;BME280;48391;49.184;2.418;2023-07-08T17:23:09;61489.81;;;-142.61;100.00
62354;BME280;48391;49.184;2.418;2023-07-08T17:25:37;61489.81;;;-142.61;100.00
62354;BME280;48391;49.184;2.418;2023-07-08T17:28:03;61489.81;;;-142.61;100.00
62354;BME280;48391;49.184;2.418;2023-07-08T17:30:29;61489.81;;;-142.61;100.00
62354;BME280;48391;49.184;2.418;2023-07-08T17:32:57;61489.81;;;-142.61;100.00
62354;BME280;48391;49.184;2.418;2023-07-08T17:35:26;61489.81;;;-142.61;100.00
62354;BME280;48391;49.184;2.418;2023-07-08T17:37:53;61489.81;;;-142.61;100.00
62354;BME280;48391;49.184;2.418;2023-07-08T17:40:22;61489.81;;;-142.61;100.00
62354;BME280;48391;49.184;2.418;2023-07-08T17:42:49;61489.81;;;-142.61;100.00
62354;BME280;48391;49.184;2.418;2023-07-08T17:45:22;61489.81;;;-142.61;100.00
62354;BME280;48391;49.184;2.418;2023-07-08T17:47:50;61489.81;;;-142.61;100.00
62354;BME280;48391;49.184;2.418;2023-07-08T17:50:21;61489.81;;;-142.61;100.00
62354;BME280;48391;49.184;2.418;2023-07-08T17:52:49;61489.81;;;-142.61;100.00
62354;BME280;48391;49.184;2.418;2023-07-08T17:55:16;61489.81;;;-142.61;100.00
62354;BME280;48391;49.184;2.418;2023-07-08T17:57:44;61489.81;;;-142.61;100.00
62354;BME280;48391;49.184;2.418;2023-07-08T18:00:38;61489.81;;;-142.61;100.00
62354;BME280;48391;49.184;2.418;2023-07-08T18:03:05;61489.81;;;-142.61;100.00
62354;BME280;48391;49.184;2.418;2023-07-08T18:05:31;61489.81;;;-142.61;100.00
62354;BME280;48391;49.184;2.418;2023-07-08T18:07:58;61489.81;;;-142.61;100.00
62354;BME280;48391;49.184;2.418;2023-07-08T18:10:27;61489.81;;;-142.61;100.00
62354;BME280;48391;49.184;2.418;2023-07-08T18:12:55;61489.81;;;-142.61;100.00
62354;BME280;48391;49.184;2.418;2023-07-08T18:15:27;61489.81;;;-142.61;100.00
62354;BME280;48391;49.184;2.418;2023-07-08T18:17:58;61489.81;;;-142.61;100.00
62354;BME280;48391;49.184;2.418;2023-07-08T18:20:35;61489.81;;;-142.61;100.00
62354;BME280;48391;49.184;2.418;2023-07-08T18:23:02;61489.81;;;-142.61;100.00
62354;BME280;48391;49.184;2.418;2023-07-08T18:25:32;61489.81;;;-142.61;100.00
62354;BME280;48391;49.184;2.418;2023-07-08T18:27:59;61489.81;;;-142.61;100.00
62354;BME280;48391;49.184;2.418;2023-07-08T18:30:28;61489.81;;;-142.61;100.00
62354;BME280;48391;49.184;2.418;2023-07-08T18:32:54;61489.81;;;-142.61;100.00
62354;BME280;48391;49.184;2.418;2023-07-08T18:35:29;61489.81;;;-142.61;100.00
62354;BME280;48391;49.184;2.418;2023-07-08T18:37:56;61489.81;;;-142.61;100.00
62354;BME280;48391;49.184;2.418;2023-07-08T18:40:29;61489.81;;;-142.61;100.00
62354;BME280;48391;49.184;2.418;2023-07-08T18:43:04;61489.81;;;-142.61;100.00
62354;BME280;48391;49.184;2.418;2023-07-08T18:45:31;61489.81;;;-142.61;100.00